createdAt,value
2023-12-26T00:00:29.959Z,79.28
2023-12-26T00:05:32.693Z,79.25
2023-12-26T00:10:35.683Z,79.16
2023-12-26T00:15:38.625Z,79.28
2023-12-26T00:20:44.999Z,79.29
2023-12-26T00:25:48.302Z,79.41
2023-12-26T00:30:53.851Z,79.54
2023-12-26T00:35:58.478Z,79.69
2023-12-26T00:41:01.138Z,79.38
2023-12-26T00:46:03.862Z,79.51
2023-12-26T00:51:07.395Z,79.78
2023-12-26T00:56:09.987Z,79.99
2023-12-26T01:01:12.672Z,79.74
2023-12-26T01:06:16.496Z,79.69
2023-12-26T01:11:19.263Z,80.05
2023-12-26T01:16:23.959Z,79.97
2023-12-26T01:21:26.718Z,79.98
2023-12-26T01:26:32.248Z,80.12
2023-12-26T01:31:38.450Z,80.12
2023-12-26T01:36:42.402Z,80.08
2023-12-26T01:41:45.123Z,80.05
2023-12-26T01:46:47.788Z,80.11
2023-12-26T01:51:53.251Z,80.28
2023-12-26T01:56:56.252Z,80.33
2023-12-26T02:01:59.864Z,80.17
2023-12-26T02:07:03.530Z,80.33
2023-12-26T02:12:07.503Z,80.18
2023-12-26T02:17:16.852Z,80.34
2023-12-26T02:22:19.875Z,80.12
2023-12-26T02:27:26.720Z,80.46
2023-12-26T02:32:29.931Z,80.19
2023-12-26T02:37:32.963Z,80.22
2023-12-26T02:42:35.589Z,80.46
2023-12-26T02:47:38.290Z,80.29
2023-12-26T02:52:43.204Z,80.51
2023-12-26T02:57:45.832Z,80.61
2023-12-26T03:02:48.525Z,80.60
2023-12-26T03:07:51.432Z,80.45
2023-12-26T03:12:55.345Z,80.49
2023-12-26T03:17:58.311Z,80.82
2023-12-26T03:23:01.195Z,80.81
2023-12-26T03:28:03.939Z,80.69
2023-12-26T03:33:07.989Z,80.59
2023-12-26T03:38:10.692Z,80.68
2023-12-26T03:43:14.632Z,80.79
2023-12-26T03:48:19.179Z,80.86
2023-12-26T03:53:22.894Z,80.82
2023-12-26T03:58:25.599Z,81.08
2023-12-26T04:03:28.449Z,81.05
2023-12-26T04:08:31.351Z,81.12
2023-12-26T04:13:34.058Z,81.17
2023-12-26T04:18:37.366Z,81.17
2023-12-26T04:23:40.255Z,81.22
2023-12-26T04:28:43.513Z,81.12
2023-12-26T04:33:46.926Z,81.44
2023-12-26T04:38:50.030Z,81.30
2023-12-26T04:43:52.745Z,81.20
2023-12-26T04:48:55.635Z,81.24
2023-12-26T04:53:58.840Z,81.29
2023-12-26T04:59:01.974Z,81.40
2023-12-26T05:04:05.444Z,81.47
2023-12-26T05:09:08.101Z,81.49
2023-12-26T05:14:10.800Z,81.49
2023-12-26T05:19:13.736Z,81.22
2023-12-26T05:24:16.902Z,81.57
2023-12-26T05:29:19.693Z,81.69
2023-12-26T05:34:22.550Z,81.58
2023-12-26T05:39:25.420Z,81.57
2023-12-26T05:44:28.245Z,81.63
2023-12-26T05:49:32.154Z,81.47
2023-12-26T05:54:34.953Z,81.81
2023-12-26T05:59:37.906Z,81.55
2023-12-26T06:04:41.210Z,81.62
2023-12-26T06:09:44.591Z,81.84
2023-12-26T06:14:47.574Z,81.98
2023-12-26T06:19:51.074Z,81.73
2023-12-26T06:24:53.824Z,82.04
2023-12-26T06:29:57.694Z,81.96
2023-12-26T06:35:01.982Z,82.21
2023-12-26T06:40:06.987Z,82.07
2023-12-26T06:45:09.969Z,82.35
2023-12-26T06:50:12.985Z,82.40
2023-12-26T06:55:28.158Z,82.10
2023-12-26T07:42:38.241Z,82.99
2023-12-26T07:48:55.149Z,83.60
2023-12-26T08:00:37.994Z,82.79
2023-12-26T08:06:16.528Z,82.83
2023-12-26T08:53:08.095Z,83.81
2023-12-26T09:34:26.203Z,84.04
2023-12-26T09:39:29.311Z,84.15
2023-12-26T09:44:33.211Z,84.31
2023-12-26T09:49:38.459Z,84.48
2023-12-26T09:54:47.620Z,84.44
2023-12-26T09:59:52.884Z,84.66
2023-12-26T10:04:56.313Z,84.67
2023-12-26T10:09:59.527Z,84.61
2023-12-26T10:15:06.581Z,84.75
2023-12-26T10:20:09.946Z,84.29
2023-12-26T10:25:14.390Z,84.28
2023-12-26T10:30:19.402Z,83.81
2023-12-26T10:35:22.510Z,83.71
2023-12-26T10:40:25.114Z,84.00
2023-12-26T10:45:28.222Z,83.86
2023-12-26T10:50:36.344Z,84.03
2023-12-26T10:55:39.208Z,84.15
2023-12-26T11:00:54.755Z,83.88
2023-12-26T11:06:53.516Z,83.78
2023-12-26T11:13:11.172Z,83.53
2023-12-26T11:19:28.500Z,83.26
2023-12-26T11:25:47.119Z,82.86
2023-12-26T11:32:04.231Z,82.62
2023-12-26T11:38:21.669Z,82.68
2023-12-26T11:44:38.765Z,82.69
2023-12-26T11:50:56.271Z,82.37
2023-12-26T11:57:13.640Z,82.25
2023-12-26T12:03:30.822Z,82.10
2023-12-26T12:09:47.678Z,81.92
2023-12-26T12:16:05.248Z,81.69
2023-12-26T12:22:22.796Z,81.40
2023-12-26T12:28:40.196Z,81.29
2023-12-26T12:35:00.430Z,81.30
2023-12-26T12:41:18.021Z,80.91
2023-12-26T12:47:35.014Z,80.83
2023-12-26T12:53:52.477Z,80.50
2023-12-26T13:00:10.214Z,80.31
2023-12-26T13:06:27.736Z,80.22
2023-12-26T13:12:45.167Z,80.10
2023-12-26T13:19:02.214Z,79.88
2023-12-26T13:25:18.904Z,79.86
2023-12-26T13:31:37.193Z,79.61
2023-12-26T13:37:57.371Z,79.03
2023-12-26T13:44:15.557Z,78.66
2023-12-26T13:50:33.267Z,78.62
2023-12-26T13:55:54.536Z,79.09
2023-12-26T14:01:34.668Z,78.22
2023-12-26T14:06:37.341Z,78.73
2023-12-26T14:12:28.236Z,78.30
2023-12-26T14:18:39.777Z,78.54
2023-12-26T14:55:26.882Z,77.97
2023-12-26T15:01:06.986Z,77.20
2023-12-26T15:06:18.086Z,77.15
2023-12-26T15:11:40.264Z,77.02
2023-12-26T15:16:42.926Z,76.87
2023-12-26T15:21:46.064Z,76.73
2023-12-26T15:26:48.979Z,76.64
2023-12-26T15:31:52.849Z,76.49
2023-12-26T15:36:55.554Z,76.31
2023-12-26T15:41:58.199Z,76.27
2023-12-26T15:47:00.920Z,75.98
2023-12-26T15:52:03.644Z,76.12
2023-12-26T15:57:06.351Z,75.90
2023-12-26T16:02:09.017Z,75.93
2023-12-26T16:07:11.668Z,75.87
2023-12-26T16:12:14.331Z,75.89
2023-12-26T16:17:17.092Z,75.57
2023-12-26T16:22:20.151Z,75.83
2023-12-26T16:27:22.867Z,75.64
2023-12-26T16:32:25.510Z,75.68
2023-12-26T16:37:28.165Z,75.49
2023-12-26T16:42:30.862Z,75.78
2023-12-26T16:47:33.944Z,75.81
2023-12-26T16:52:37.004Z,75.91
2023-12-26T16:57:39.691Z,76.04
2023-12-26T17:02:42.292Z,75.87
2023-12-26T17:07:45.249Z,75.82
2023-12-26T17:12:48.445Z,75.87
2023-12-26T17:17:51.258Z,76.19
2023-12-26T17:22:54.220Z,76.32
2023-12-26T17:27:57.314Z,76.20
2023-12-26T17:33:00.993Z,76.09
2023-12-26T17:38:06.190Z,76.27
2023-12-26T17:43:08.925Z,76.16
2023-12-26T17:48:11.686Z,76.39
2023-12-26T17:53:14.437Z,76.34
2023-12-26T17:58:17.176Z,76.44
2023-12-26T18:03:19.998Z,76.35
2023-12-26T18:08:22.629Z,76.41
2023-12-26T18:13:25.139Z,76.48
2023-12-26T18:18:30.550Z,76.59
2023-12-26T18:23:40.804Z,76.66
2023-12-26T18:28:44.548Z,76.49
2023-12-26T18:33:47.310Z,76.72
2023-12-26T18:38:51.438Z,76.74
2023-12-26T18:43:54.191Z,76.70
2023-12-26T18:48:57.010Z,76.65
2023-12-26T18:53:59.908Z,76.89
2023-12-26T18:59:03.229Z,76.93
2023-12-26T19:04:06.147Z,76.68
2023-12-26T19:09:12.633Z,76.69
2023-12-26T19:14:15.457Z,76.93
2023-12-26T19:19:20.073Z,76.96
2023-12-26T19:24:23.008Z,76.74
2023-12-26T19:29:25.708Z,77.15
2023-12-26T19:34:28.308Z,76.83
2023-12-26T19:39:31.059Z,76.89
2023-12-26T19:44:35.127Z,76.96
2023-12-26T19:49:38.868Z,77.11
2023-12-26T19:54:44.660Z,77.09
2023-12-26T19:59:47.233Z,76.78
2023-12-26T20:04:49.871Z,76.80
2023-12-26T20:09:52.513Z,77.13
2023-12-26T20:14:55.221Z,76.91
2023-12-26T20:19:58.122Z,76.97
2023-12-26T20:25:00.891Z,76.88
2023-12-26T20:30:03.779Z,77.14
2023-12-26T20:35:08.187Z,77.08
2023-12-26T20:40:11.402Z,77.24
2023-12-26T20:45:14.065Z,77.00
2023-12-26T20:50:16.904Z,76.90
2023-12-26T20:55:19.399Z,77.23
2023-12-26T21:00:21.956Z,77.22
2023-12-26T21:05:24.468Z,77.12
2023-12-26T21:10:29.096Z,77.23
2023-12-26T21:15:31.666Z,76.81
2023-12-26T21:20:34.248Z,77.13
2023-12-26T21:25:36.778Z,77.25
2023-12-26T21:30:39.405Z,77.15
2023-12-26T21:35:42.087Z,77.20
2023-12-26T21:40:49.095Z,77.34
2023-12-26T21:45:51.816Z,77.31
2023-12-26T21:50:54.376Z,77.16
2023-12-26T21:55:56.860Z,77.17
2023-12-26T22:00:59.376Z,77.28
2023-12-26T22:06:02.135Z,77.15
2023-12-26T22:11:04.994Z,77.31
2023-12-26T22:16:07.638Z,77.57
2023-12-26T22:21:10.384Z,77.26
2023-12-26T22:26:12.886Z,77.39
2023-12-26T22:31:23.256Z,77.43
2023-12-26T22:36:27.212Z,77.57
2023-12-26T22:41:32.746Z,77.28
2023-12-26T22:46:35.326Z,77.57
2023-12-26T22:51:37.928Z,77.58
2023-12-26T22:56:41.833Z,77.65
2023-12-26T23:01:46.739Z,77.49
2023-12-26T23:06:49.466Z,77.48
2023-12-26T23:11:52.981Z,77.58
2023-12-26T23:16:55.535Z,77.71
2023-12-26T23:21:58.083Z,77.96
2023-12-26T23:27:00.632Z,77.86
2023-12-26T23:32:03.829Z,77.93
2023-12-26T23:37:06.589Z,78.02
2023-12-26T23:42:09.147Z,77.90
2023-12-26T23:47:15.141Z,78.13
2023-12-26T23:52:17.952Z,78.17
2023-12-26T23:57:20.518Z,78.11
